createdAt,value
2018-08-10T20:30:01.934Z,13.70
2018-08-10T20:32:29.933Z,13.70
2018-08-10T20:34:57.957Z,13.60
2018-08-10T20:37:25.966Z,13.60
2018-08-10T20:39:54.033Z,13.50
2018-08-10T20:42:22.037Z,13.50
2018-08-10T20:44:50.054Z,13.50
2018-08-10T20:47:18.077Z,13.50
2018-08-10T20:49:46.086Z,13.40
2018-08-10T20:52:14.085Z,13.40
2018-08-10T20:54:42.085Z,13.40
2018-08-10T20:57:10.132Z,13.40
2018-08-10T20:59:38.125Z,13.30
2018-08-10T21:02:06.374Z,13.10
2018-08-10T21:04:34.377Z,13.10
2018-08-10T21:07:02.433Z,13.00
2018-08-10T21:09:30.446Z,12.90
2018-08-10T21:11:58.430Z,12.90
2018-08-10T21:14:26.447Z,12.90
2018-08-10T21:16:54.457Z,12.80
2018-08-10T21:19:22.470Z,12.80
2018-08-10T21:21:50.469Z,12.70
2018-08-10T21:24:18.503Z,12.70
2018-08-10T21:26:46.538Z,12.60
2018-08-10T21:29:14.548Z,12.60
2018-08-10T21:31:42.553Z,12.50
2018-08-10T21:34:10.552Z,12.40
2018-08-10T21:36:38.926Z,12.30
2018-08-10T21:39:08.201Z,12.10
2018-08-10T21:41:36.196Z,12.00
2018-08-10T21:44:04.205Z,12.00
2018-08-10T21:46:32.245Z,12.00
2018-08-10T21:49:00.245Z,11.90
2018-08-10T21:51:28.261Z,11.90
2018-08-10T21:53:56.342Z,11.90
2018-08-10T21:56:24.333Z,11.80
2018-08-10T21:58:52.362Z,11.80
2018-08-10T22:01:20.390Z,11.90
2018-08-10T22:03:48.395Z,11.90
2018-08-10T22:06:16.381Z,11.90
2018-08-10T22:08:44.369Z,11.80
2018-08-10T22:11:12.369Z,11.80
2018-08-10T22:13:45.859Z,11.80
2018-08-10T22:16:19.229Z,11.70
2018-08-10T22:18:52.687Z,11.70
2018-08-10T22:21:20.695Z,11.70
2018-08-10T22:23:48.678Z,11.70
2018-08-10T22:26:16.721Z,11.70
2018-08-10T22:28:44.702Z,11.80
2018-08-10T22:31:12.720Z,11.80
2018-08-10T22:33:40.732Z,11.70
2018-08-10T22:36:08.747Z,11.80
2018-08-10T22:38:36.745Z,11.70
2018-08-10T22:41:04.744Z,11.70
2018-08-10T22:43:32.737Z,11.70
2018-08-10T22:46:00.743Z,11.70
2018-08-10T22:48:28.743Z,11.70
2018-08-10T22:50:56.767Z,11.60
2018-08-10T22:53:24.792Z,11.60
2018-08-10T22:55:52.796Z,11.60
2018-08-10T22:58:20.789Z,11.50
2018-08-10T23:00:48.766Z,11.40
2018-08-10T23:03:16.805Z,11.40
2018-08-10T23:05:44.833Z,11.40
2018-08-10T23:08:12.861Z,11.30
2018-08-10T23:10:40.853Z,11.30
2018-08-10T23:13:08.863Z,11.30
2018-08-10T23:15:36.878Z,11.20
2018-08-10T23:18:05.044Z,11.20
2018-08-10T23:20:33.107Z,11.10
2018-08-10T23:23:03.081Z,10.90
2018-08-10T23:25:31.121Z,11.00
2018-08-10T23:27:59.140Z,10.90
2018-08-10T23:30:27.209Z,10.90
2018-08-10T23:32:55.153Z,10.90
2018-08-10T23:35:23.153Z,10.90
2018-08-10T23:37:51.168Z,10.90
2018-08-10T23:40:19.174Z,10.90
2018-08-10T23:42:47.201Z,10.80
2018-08-10T23:45:15.605Z,10.80
2018-08-10T23:47:44.245Z,10.50
2018-08-10T23:50:14.887Z,10.80
2018-08-10T23:52:43.293Z,10.60
2018-08-10T23:55:11.625Z,10.70
2018-08-10T23:57:40.605Z,10.70
